createdAt,value
2019-01-19T00:02:34.470Z,168.93
2019-01-19T00:11:50.320Z,183.50
2019-01-19T00:18:06.520Z,204.13
2019-01-19T00:21:07.944Z,204.17
2019-01-19T00:24:15.850Z,195.33
2019-01-19T00:27:11.707Z,189.80
2019-01-19T00:30:19.495Z,201.00
2019-01-19T00:36:22.841Z,182.07
2019-01-19T00:45:29.791Z,154.87
2019-01-19T00:48:38.614Z,168.00
2019-01-19T00:51:46.489Z,148.77
2019-01-19T00:54:25.193Z,129.57
2019-01-19T00:59:56.635Z,143.87
2019-01-19T01:05:42.024Z,150.60
2019-01-19T01:08:49.813Z,141.20
2019-01-19T01:14:45.418Z,133.37
2019-01-19T01:20:41.921Z,128.77
2019-01-19T01:26:32.929Z,145.00
2019-01-19T01:32:13.172Z,153.13
2019-01-19T01:35:20.991Z,155.00
2019-01-19T01:38:38.311Z,157.20
2019-01-19T01:47:51.347Z,183.43
2019-01-19T01:56:46.064Z,144.37
2019-01-19T01:59:54.052Z,156.80
2019-01-19T02:06:04.510Z,152.43
2019-01-19T02:08:57.455Z,126.03
2019-01-19T02:18:02.942Z,135.33
2019-01-19T02:20:55.396Z,127.03
2019-01-19T02:24:03.294Z,152.00
2019-01-19T02:27:11.174Z,123.07
2019-01-19T02:36:43.009Z,121.83
2019-01-19T02:42:30.482Z,143.93
2019-01-19T02:51:32.254Z,163.43
2019-01-19T02:54:39.960Z,145.20
2019-01-19T02:58:08.497Z,155.10
2019-01-19T03:01:13.221Z,127.40
2019-01-19T03:10:41.508Z,139.23
2019-01-19T03:13:56.332Z,135.50
2019-01-19T03:17:09.707Z,137.30
2019-01-19T03:23:48.770Z,130.27
2019-01-19T03:30:06.644Z,118.37
2019-01-19T03:33:01.457Z,133.07
2019-01-19T03:39:21.003Z,148.70
2019-01-19T03:45:40.273Z,132.23
2019-01-19T03:48:41.525Z,143.20
2019-01-19T03:51:49.286Z,126.80
2019-01-19T03:58:13.446Z,122.50
2019-01-19T04:01:06.886Z,113.63
2019-01-19T04:04:01.471Z,113.77
2019-01-19T04:06:59.609Z,118.47
2019-01-19T04:09:53.839Z,129.63
2019-01-19T04:16:11.136Z,147.33
2019-01-19T04:19:05.447Z,154.13
2019-01-19T04:24:48.128Z,155.90
2019-01-19T04:29:54.500Z,151.93
2019-01-19T04:32:24.882Z,156.77
2019-01-19T04:34:55.147Z,159.23
2019-01-19T04:37:25.312Z,143.20
2019-01-19T04:39:55.575Z,150.03
2019-01-19T04:42:26.109Z,151.77
2019-01-19T04:44:56.346Z,149.17
2019-01-19T04:47:26.523Z,151.57
2019-01-19T04:49:56.791Z,159.97
2019-01-19T04:52:27.017Z,128.63
2019-01-19T04:54:57.309Z,141.30
2019-01-19T04:57:27.585Z,150.77
2019-01-19T04:59:57.745Z,148.17
2019-01-19T05:02:27.930Z,165.83
2019-01-19T05:04:58.203Z,150.83
2019-01-19T05:07:28.472Z,125.23
2019-01-19T05:09:58.647Z,112.53
2019-01-19T05:12:28.813Z,133.10
2019-01-19T05:14:59.075Z,114.53
2019-01-19T05:17:29.361Z,109.33
2019-01-19T05:19:59.533Z,128.83
2019-01-19T05:22:29.722Z,149.33
2019-01-19T05:24:59.980Z,133.27
2019-01-19T05:27:30.240Z,136.03
2019-01-19T05:32:36.813Z,148.00
2019-01-19T05:35:07.217Z,158.50
2019-01-19T05:40:36.624Z,168.47
2019-01-19T05:43:06.902Z,155.40
2019-01-19T05:45:37.064Z,140.00
2019-01-19T05:48:07.248Z,160.80
2019-01-19T05:50:37.533Z,142.20
2019-01-19T05:53:07.895Z,133.93
2019-01-19T05:55:38.102Z,146.70
2019-01-19T05:58:08.271Z,148.47
2019-01-19T06:00:38.526Z,140.63
2019-01-19T06:03:08.801Z,154.07
2019-01-19T06:08:38.703Z,136.13
2019-01-19T06:11:09.093Z,130.17
2019-01-19T06:13:39.440Z,170.00
2019-01-19T06:16:09.616Z,155.83
2019-01-19T06:21:56.652Z,149.90
2019-01-19T06:24:27.020Z,153.03
2019-01-19T06:26:57.462Z,151.37
2019-01-19T06:29:27.639Z,166.07
2019-01-19T06:31:57.888Z,168.13
2019-01-19T06:34:28.152Z,165.37
2019-01-19T06:36:58.354Z,179.50
2019-01-19T06:39:28.531Z,205.53
2019-01-19T06:41:58.811Z,261.17
2019-01-19T06:44:29.072Z,232.23
2019-01-19T06:46:59.247Z,276.93
2019-01-19T06:49:29.401Z,427.17
2019-01-19T06:51:59.669Z,384.63
2019-01-19T06:54:30.667Z,361.30
2019-01-19T06:57:00.920Z,382.90
2019-01-19T06:59:31.194Z,337.33
2019-01-19T07:02:01.362Z,328.93
2019-01-19T07:04:31.556Z,417.30
2019-01-19T07:07:02.756Z,391.70
2019-01-19T07:12:10.174Z,393.57
2019-01-19T07:14:40.457Z,391.60
2019-01-19T07:17:10.662Z,341.60
2019-01-19T07:19:40.946Z,341.20
2019-01-19T07:25:10.518Z,184.73
2019-01-19T07:27:40.743Z,201.60
2019-01-19T07:30:31.121Z,185.50
2019-01-19T07:33:01.648Z,165.57
2019-01-19T07:35:31.845Z,181.13
2019-01-19T07:38:02.054Z,176.67
2019-01-19T07:40:32.208Z,198.63
2019-01-19T07:48:54.973Z,161.63
2019-01-19T07:51:25.767Z,181.50
2019-01-19T07:53:57.343Z,166.63
2019-01-19T07:56:27.773Z,199.50
2019-01-19T07:58:58.022Z,191.17
2019-01-19T08:01:28.210Z,226.87
2019-01-19T08:03:58.416Z,195.97
2019-01-19T08:06:28.700Z,230.73
2019-01-19T08:14:35.649Z,212.00
2019-01-19T08:17:06.045Z,233.93
2019-01-19T08:19:36.226Z,210.30
2019-01-19T08:22:06.495Z,236.20
2019-01-19T08:24:36.801Z,219.43
2019-01-19T08:27:07.016Z,228.90
2019-01-19T08:29:37.237Z,267.97
2019-01-19T08:32:07.555Z,278.23
2019-01-19T08:34:37.862Z,239.00
2019-01-19T08:37:08.066Z,277.50
2019-01-19T08:39:38.366Z,230.87
2019-01-19T08:42:08.764Z,240.67
2019-01-19T08:44:39.090Z,235.73
2019-01-19T08:47:09.328Z,228.03
2019-01-19T08:49:39.518Z,239.23
2019-01-19T08:52:09.798Z,258.30
2019-01-19T08:54:40.076Z,278.80
2019-01-19T08:57:10.240Z,247.30
2019-01-19T08:59:47.582Z,226.83
2019-01-19T09:02:17.869Z,199.80
2019-01-19T09:04:48.032Z,174.73
2019-01-19T09:07:18.303Z,193.73
2019-01-19T09:09:48.622Z,245.13
2019-01-19T09:12:18.839Z,313.80
2019-01-19T09:14:49.030Z,297.00
2019-01-19T09:17:19.338Z,291.47
2019-01-19T09:19:49.629Z,345.63
2019-01-19T09:22:19.816Z,264.63
2019-01-19T09:24:50.117Z,240.67
2019-01-19T09:27:20.465Z,240.07
2019-01-19T09:29:50.733Z,225.00
2019-01-19T09:32:21.102Z,262.43
2019-01-19T09:34:51.296Z,214.40
2019-01-19T09:37:21.572Z,168.30
2019-01-19T09:39:51.774Z,199.17
2019-01-19T09:42:22.067Z,188.57
2019-01-19T09:44:52.337Z,147.67
2019-01-19T09:47:22.514Z,130.17
2019-01-19T09:49:52.707Z,138.63
2019-01-19T09:52:22.971Z,125.83
2019-01-19T09:54:53.280Z,118.73
2019-01-19T09:57:23.462Z,130.07
2019-01-19T10:02:29.800Z,124.97
2019-01-19T10:07:56.837Z,120.67
2019-01-19T10:10:27.139Z,108.87
2019-01-19T10:12:57.380Z,117.37
2019-01-19T10:15:27.655Z,102.30
2019-01-19T10:23:42.755Z,103.03
2019-01-19T10:26:12.949Z,125.60
2019-01-19T10:31:43.994Z,88.30
2019-01-19T10:34:14.457Z,90.80
2019-01-19T10:36:44.638Z,59.03
2019-01-19T10:39:14.829Z,77.00
2019-01-19T10:41:45.091Z,90.73
2019-01-19T10:44:15.368Z,83.47
2019-01-19T10:46:45.555Z,72.80
2019-01-19T10:49:15.755Z,57.43
2019-01-19T10:51:46.037Z,62.80
2019-01-19T10:54:16.299Z,57.90
2019-01-19T10:56:46.466Z,81.33
2019-01-19T10:59:16.662Z,92.07
2019-01-19T11:01:46.970Z,152.57
2019-01-19T11:04:17.174Z,186.37
2019-01-19T11:06:47.451Z,201.80
2019-01-19T11:09:17.728Z,94.63
2019-01-19T11:11:47.909Z,110.60
2019-01-19T11:14:18.104Z,109.93
2019-01-19T11:16:48.380Z,126.90
2019-01-19T11:19:18.680Z,113.63
2019-01-19T11:21:48.853Z,109.40
2019-01-19T11:24:19.041Z,96.70
2019-01-19T11:26:49.320Z,111.93
2019-01-19T11:29:19.584Z,115.27
2019-01-19T11:31:49.884Z,98.17
2019-01-19T11:36:56.497Z,97.20
2019-01-19T11:39:26.767Z,95.40
2019-01-19T11:41:56.966Z,115.27
2019-01-19T11:44:27.156Z,120.70
2019-01-19T11:46:57.425Z,102.67
2019-01-19T11:49:27.670Z,121.77
2019-01-19T11:51:57.834Z,97.60
2019-01-19T11:54:28.088Z,105.60
2019-01-19T11:56:58.363Z,99.80
2019-01-19T11:59:28.652Z,129.03
2019-01-19T12:01:58.823Z,124.50
2019-01-19T12:04:29.022Z,127.10
2019-01-19T12:06:59.284Z,97.37
2019-01-19T12:09:29.585Z,88.23
2019-01-19T12:11:59.753Z,75.67
2019-01-19T12:14:29.936Z,70.17
2019-01-19T12:17:00.197Z,58.07
2019-01-19T12:19:30.467Z,41.90
2019-01-19T12:22:00.676Z,39.70
2019-01-19T12:24:30.934Z,50.30
2019-01-19T12:27:01.112Z,35.77
2019-01-19T12:29:31.266Z,41.40
2019-01-19T12:32:01.647Z,43.00
2019-01-19T12:34:31.913Z,35.60
2019-01-19T12:39:38.381Z,88.40
2019-01-19T12:42:08.721Z,111.83
2019-01-19T12:44:39.006Z,104.00
2019-01-19T12:47:11.570Z,94.60
2019-01-19T12:49:42.436Z,118.17
2019-01-19T12:52:13.372Z,107.03
2019-01-19T12:54:43.763Z,164.77
2019-01-19T12:57:13.938Z,121.20
2019-01-19T12:59:44.126Z,105.27
2019-01-19T13:02:14.396Z,101.60
2019-01-19T13:04:44.580Z,100.70
2019-01-19T13:07:16.701Z,202.30
2019-01-19T13:16:21.039Z,124.50
2019-01-19T13:22:35.799Z,95.10
2019-01-19T13:28:45.810Z,144.33
2019-01-19T13:31:53.605Z,131.50
2019-01-19T13:34:51.803Z,40.73
2019-01-19T13:37:45.160Z,99.50
2019-01-19T13:40:53.066Z,98.30
2019-01-19T13:47:14.755Z,98.57
2019-01-19T13:50:22.483Z,174.97
2019-01-19T13:56:39.018Z,212.13
2019-01-19T13:59:33.599Z,133.70
2019-01-19T14:11:42.243Z,254.33
2019-01-19T14:20:33.112Z,165.07
2019-01-19T14:29:33.435Z,101.77
2019-01-19T14:32:41.156Z,113.20
2019-01-19T14:39:16.455Z,106.07
2019-01-19T14:42:27.936Z,108.17
2019-01-19T14:49:06.297Z,86.23
2019-01-19T14:55:01.493Z,108.07
2019-01-19T15:06:52.512Z,159.17
2019-01-19T15:09:43.931Z,160.37
2019-01-19T15:12:51.733Z,148.30
2019-01-19T15:15:54.603Z,155.87
2019-01-19T15:21:38.851Z,114.73
2019-01-19T15:24:32.325Z,105.93
2019-01-19T15:30:54.775Z,92.97
2019-01-19T15:33:52.317Z,90.70
2019-01-19T15:39:50.093Z,81.27
2019-01-19T15:49:20.653Z,116.57
2019-01-19T15:55:08.369Z,141.50
2019-01-19T15:58:16.276Z,207.43
2019-01-19T16:01:24.114Z,252.47
2019-01-19T16:07:12.922Z,233.70
2019-01-19T16:16:24.058Z,295.27
2019-01-19T16:22:36.715Z,331.07
2019-01-19T16:25:30.104Z,313.57
2019-01-19T16:31:59.910Z,445.53
2019-01-19T16:35:16.722Z,304.57
2019-01-19T16:37:59.671Z,350.27
2019-01-19T16:40:41.147Z,291.73
2019-01-19T16:49:20.649Z,255.57
2019-01-19T16:55:23.967Z,238.87
2019-01-19T16:58:18.542Z,229.00
2019-01-19T17:01:27.605Z,235.83
2019-01-19T17:04:35.553Z,205.90
2019-01-19T17:07:52.540Z,214.80
2019-01-19T17:14:00.554Z,264.07
2019-01-19T17:16:56.805Z,213.73
2019-01-19T17:25:47.457Z,295.43
2019-01-19T17:31:56.990Z,300.97
2019-01-19T17:35:00.311Z,367.17
2019-01-19T17:37:35.081Z,258.27
2019-01-19T17:40:43.125Z,253.67
2019-01-19T17:43:50.982Z,290.07
2019-01-19T17:53:21.837Z,256.73
2019-01-19T17:56:16.501Z,268.33
2019-01-19T17:59:04.307Z,290.80
2019-01-19T18:02:12.263Z,356.10
2019-01-19T18:08:02.966Z,355.60
2019-01-19T18:17:12.576Z,345.57
2019-01-19T18:23:11.260Z,348.53
2019-01-19T18:29:00.860Z,357.50
2019-01-19T18:32:08.582Z,327.17
2019-01-19T18:37:59.864Z,367.60
2019-01-19T18:41:07.875Z,346.53
2019-01-19T18:44:01.595Z,301.77
2019-01-19T18:47:09.479Z,290.87
2019-01-19T18:56:20.224Z,331.90
2019-01-19T18:59:27.930Z,332.20
2019-01-19T19:05:29.963Z,328.13
2019-01-19T19:08:37.748Z,307.33
2019-01-19T19:14:11.217Z,320.63
2019-01-19T19:17:18.966Z,290.70
2019-01-19T19:23:14.682Z,283.33
2019-01-19T19:26:08.255Z,267.10
2019-01-19T19:29:17.522Z,254.97
2019-01-19T19:35:04.449Z,222.73
2019-01-19T19:44:26.901Z,220.53
2019-01-19T19:50:36.573Z,227.67
2019-01-19T19:53:07.037Z,213.40
2019-01-19T19:55:34.887Z,219.83
2019-01-19T19:58:05.295Z,206.17
2019-01-19T20:00:35.502Z,237.90
2019-01-19T20:03:05.756Z,246.07
2019-01-19T20:05:35.965Z,221.77
2019-01-19T20:08:06.347Z,255.03
2019-01-19T20:10:36.549Z,206.63
2019-01-19T20:13:06.836Z,207.97
2019-01-19T20:15:37.165Z,245.40
2019-01-19T20:18:26.243Z,267.97
2019-01-19T20:20:56.587Z,240.13
2019-01-19T20:26:02.875Z,306.80
2019-01-19T20:28:33.298Z,220.90
2019-01-19T20:31:03.647Z,248.13
2019-01-19T20:33:33.894Z,216.80
2019-01-19T20:38:59.851Z,218.23
2019-01-19T20:41:30.244Z,221.33
2019-01-19T20:44:00.539Z,228.20
2019-01-19T20:46:30.736Z,258.13
2019-01-19T20:49:01.082Z,264.73
2019-01-19T20:51:31.336Z,247.40
2019-01-19T20:54:01.636Z,246.17
2019-01-19T20:56:31.938Z,229.47
2019-01-19T20:59:02.241Z,224.17
2019-01-19T21:01:32.423Z,216.23
2019-01-19T21:04:02.811Z,216.73
2019-01-19T21:06:33.226Z,195.20
2019-01-19T21:09:03.439Z,204.87
2019-01-19T21:11:33.667Z,193.40
2019-01-19T21:14:04.621Z,209.43
2019-01-19T21:16:34.939Z,192.23
2019-01-19T21:19:05.139Z,212.50
2019-01-19T21:21:35.420Z,208.07
2019-01-19T21:24:08.235Z,197.90
2019-01-19T21:26:38.597Z,215.20
2019-01-19T21:29:08.800Z,228.13
2019-01-19T21:31:39.093Z,254.90
2019-01-19T21:34:09.286Z,219.07
2019-01-19T21:36:39.483Z,204.77
2019-01-19T21:44:37.936Z,298.57
2019-01-19T21:47:08.258Z,222.80
2019-01-19T21:49:38.447Z,227.97
2019-01-19T21:52:08.748Z,293.87
2019-01-19T21:54:39.053Z,294.47
2019-01-19T21:57:09.239Z,284.57
2019-01-19T21:59:39.420Z,246.17
2019-01-19T22:02:09.763Z,239.47
2019-01-19T22:04:40.040Z,258.63
2019-01-19T22:07:10.207Z,235.00
2019-01-19T22:09:40.519Z,244.17
2019-01-19T22:12:10.831Z,225.70
2019-01-19T22:14:41.118Z,189.57
2019-01-19T22:17:11.417Z,214.30
2019-01-19T22:19:41.805Z,218.77
2019-01-19T22:22:12.049Z,230.33
2019-01-19T22:24:42.312Z,211.67
2019-01-19T22:30:14.682Z,209.30
2019-01-19T22:32:44.966Z,243.60
2019-01-19T22:35:15.330Z,250.90
2019-01-19T22:37:45.631Z,238.77
2019-01-19T22:40:17.682Z,231.20
2019-01-19T22:42:47.984Z,277.47
2019-01-19T22:45:18.379Z,243.63
2019-01-19T22:47:48.655Z,197.97
2019-01-19T22:50:19.008Z,170.87
2019-01-19T22:52:49.283Z,187.93
2019-01-19T22:55:19.561Z,159.63
2019-01-19T22:57:49.835Z,175.80
2019-01-19T23:05:50.966Z,145.03
2019-01-19T23:11:15.506Z,135.17
2019-01-19T23:13:45.892Z,137.97
2019-01-19T23:16:16.247Z,137.23
2019-01-19T23:18:46.566Z,151.77
2019-01-19T23:21:16.839Z,112.37
2019-01-19T23:23:47.107Z,157.57
2019-01-19T23:26:17.751Z,144.90
2019-01-19T23:28:48.017Z,133.20
2019-01-19T23:31:18.288Z,140.50
2019-01-19T23:33:48.480Z,147.03
2019-01-19T23:36:18.774Z,133.77
2019-01-19T23:38:48.963Z,149.57
2019-01-19T23:41:19.235Z,133.13
2019-01-19T23:43:49.517Z,137.07
2019-01-19T23:46:19.775Z,164.60
2019-01-19T23:48:49.974Z,138.47
2019-01-19T23:51:20.312Z,143.63
2019-01-19T23:53:50.598Z,149.77
2019-01-19T23:56:20.849Z,160.97
2019-01-19T23:58:51.033Z,170.10
